Alpena, Arkansas
Current Conditions -  °F | °C
As of 11:53 AM on Friday 24 Oct 2014 (Local Time) from KHRO Reporting Station
Broken Clouds Broken Clouds  
Wind Chill: 73°   Ceiling: 3900
Heat Index: 73°   Visibility: 10mi
Dew Point: 57°   Wind: 7mph
Humidity: 57%   Direction: NA
Pressure: 30.15"   Gusts: NA
Location:  36.29°N, 93.29°W
Report Text: KHRO 241653Z AUTO VRB06KT 10SM BKN039 23/14 A3015 RMK AO2 SLP203 T02280139
Loading
Personal Weather Stations






























Interactive Weather Map New forecast layout! Learn more

10-Day Weather Forecast

Advertisements
Track Severe Weather on mobile